Welcome to the New NWS' Forecast!
Most changes are behind the scenes, but click here for differences you might notice.

Terminal Aerodrome Forecast (TAF)

Issued by National Weather Service (NWS)

                            
833 
FTUS42 KMFL 162053 AAA
TAFMIA
TAF AMD
KMIA 162053Z 1621/1724 11012KT P6SM SCT035 SCT250
     FM170100 10006KT P6SM SKC
     FM171400 10012KT P6SM SCT035=